Terminal Aerodrome Forecast
Issued by NWS Upton, NY

Home | Current Version | Previous Version | Text Only | Print | Product List | Glossary On
Versions: 1 2 3 4 5 6 7 8 9 10 11 12 13 14 15 16 17 18 19 20 21 22 23 24 25 26 27 28 29 30 31 32 33 34 35 36 37
000
FTUS41 KOKX 180033 AAA
TAFEWR
TAF AMD
KEWR 180033Z 1801/1906 06004KT 1/2SM -SN FG BKN007 OVC015
     FM180200 07005KT 1/2SM SN FG OVC003
     FM180500 34005KT 1/2SM SN FG OVC005
     FM180800 30008KT P6SM SCT008 BKN060
     FM181200 30012G22KT P6SM FEW035
     FM181900 27010KT P6SM SKC
     FM190000 VRB04KT P6SM SKC=

USA.gov is the U.S. government's official web portal to all federal, state and local government web resources and services.